sensor_id;sensor_type;location;lat;lon;timestamp;pressure;altitude;pressure_sealevel;temperature;humidity
64192;BME280;50497;50.720;-2.084;2023-04-01T00:00:55;100281.50;;;9.76;100.00
64192;BME280;50497;50.720;-2.084;2023-04-01T00:03:26;100312.72;;;9.93;100.00
64192;BME280;50497;50.720;-2.084;2023-04-01T00:05:53;100311.97;;;9.89;100.00
64192;BME280;50497;50.720;-2.084;2023-04-01T00:08:18;100319.00;;;9.92;100.00
64192;BME280;50497;50.720;-2.084;2023-04-01T00:10:47;100319.00;;;9.92;100.00
64192;BME280;50497;50.720;-2.084;2023-04-01T00:13:13;100316.31;;;9.92;100.00
64192;BME280;50497;50.720;-2.084;2023-04-01T00:15:40;100320.97;;;9.88;100.00
64192;BME280;50497;50.720;-2.084;2023-04-01T00:18:10;100321.50;;;9.95;100.00
64192;BME280;50497;50.720;-2.084;2023-04-01T00:20:35;100311.97;;;9.89;100.00
64192;BME280;50497;50.720;-2.084;2023-04-01T00:23:02;100319.84;;;9.92;100.00
64192;BME280;50497;50.720;-2.084;2023-04-01T00:25:27;100324.25;;;9.93;100.00
64192;BME280;50497;50.720;-2.084;2023-04-01T00:27:53;100300.13;;;9.77;100.00
64192;BME280;50497;50.720;-2.084;2023-04-01T00:30:25;100323.22;;;9.96;100.00
64192;BME280;50497;50.720;-2.084;2023-04-01T00:32:53;100326.94;;;9.93;100.00
64192;BME280;50497;50.720;-2.084;2023-04-01T00:35:19;100302.72;;;9.79;100.00
64192;BME280;50497;50.720;-2.084;2023-04-01T00:37:49;100318.50;;;9.84;100.00
64192;BME280;50497;50.720;-2.084;2023-04-01T00:40:31;100323.56;;;9.90;100.00
64192;BME280;50497;50.720;-2.084;2023-04-01T00:43:03;100328.00;;;9.89;100.00
64192;BME280;50497;50.720;-2.084;2023-04-01T00:45:38;100323.41;;;9.93;100.00
64192;BME280;50497;50.720;-2.084;2023-04-01T00:48:30;100324.09;;;9.96;100.00
64192;BME280;50497;50.720;-2.084;2023-04-01T00:51:15;100341.78;;;9.99;100.00
64192;BME280;50497;50.720;-2.084;2023-04-01T00:53:45;100320.56;;;9.78;100.00
64192;BME280;50497;50.720;-2.084;2023-04-01T00:56:27;100317.59;;;9.85;100.00
64192;BME280;50497;50.720;-2.084;2023-04-01T00:59:03;100345.41;;;9.98;100.00
64192;BME280;50497;50.720;-2.084;2023-04-01T01:01:35;100350.59;;;10.01;100.00
64192;BME280;50497;50.720;-2.084;2023-04-01T01:04:01;100362.16;;;10.02;100.00
64192;BME280;50497;50.720;-2.084;2023-04-01T01:09:36;100370.25;;;10.00;100.00
64192;BME280;50497;50.720;-2.084;2023-04-01T01:12:14;100369.19;;;10.03;100.00
64192;BME280;50497;50.720;-2.084;2023-04-01T01:17:56;100375.25;;;9.89;100.00
64192;BME280;50497;50.720;-2.084;2023-04-01T01:28:36;100358.81;;;9.79;100.00
64192;BME280;50497;50.720;-2.084;2023-04-01T01:36:37;100356.22;;;9.77;100.00
64192;BME280;50497;50.720;-2.084;2023-04-01T01:39:07;100363.94;;;9.84;100.00
64192;BME280;50497;50.720;-2.084;2023-04-01T01:41:36;100367.38;;;9.86;100.00
64192;BME280;50497;50.720;-2.084;2023-04-01T01:44:06;100344.81;;;9.74;100.00
64192;BME280;50497;50.720;-2.084;2023-04-01T01:46:42;100371.81;;;9.87;100.00
64192;BME280;50497;50.720;-2.084;2023-04-01T01:49:16;100393.66;;;9.95;100.00
64192;BME280;50497;50.720;-2.084;2023-04-01T01:51:46;100405.28;;;9.94;100.00
64192;BME280;50497;50.720;-2.084;2023-04-01T01:54:17;100400.09;;;9.91;100.00
64192;BME280;50497;50.720;-2.084;2023-04-01T01:56:46;100396.63;;;9.89;100.00
64192;BME280;50497;50.720;-2.084;2023-04-01T01:59:19;100408.50;;;9.83;100.00
64192;BME280;50497;50.720;-2.084;2023-04-01T02:01:55;100407.25;;;9.90;100.00
64192;BME280;50497;50.720;-2.084;2023-04-01T02:04:22;100393.06;;;9.71;100.00
64192;BME280;50497;50.720;-2.084;2023-04-01T02:07:06;100411.09;;;9.85;100.00
64192;BME280;50497;50.720;-2.084;2023-04-01T02:09:39;100417.31;;;9.85;100.00
64192;BME280;50497;50.720;-2.084;2023-04-01T02:12:08;100395.38;;;9.78;100.00
64192;BME280;50497;50.720;-2.084;2023-04-01T02:14:43;100418.09;;;9.87;100.00
64192;BME280;50497;50.720;-2.084;2023-04-01T02:17:12;100429.06;;;9.81;100.00
64192;BME280;50497;50.720;-2.084;2023-04-01T02:19:54;100437.00;;;9.83;100.00
64192;BME280;50497;50.720;-2.084;2023-04-01T02:22:27;100443.59;;;9.75;100.00
64192;BME280;50497;50.720;-2.084;2023-04-01T02:25:02;100437.56;;;9.72;100.00
64192;BME280;50497;50.720;-2.084;2023-04-01T02:27:30;100449.72;;;9.77;100.00
64192;BME280;50497;50.720;-2.084;2023-04-01T02:29:58;100447.94;;;9.78;100.00
64192;BME280;50497;50.720;-2.084;2023-04-01T02:32:27;100450.53;;;9.79;100.00
64192;BME280;50497;50.720;-2.084;2023-04-01T02:34:53;100447.94;;;9.78;100.00
64192;BME280;50497;50.720;-2.084;2023-04-01T02:37:25;100457.88;;;9.74;100.00
64192;BME280;50497;50.720;-2.084;2023-04-01T02:39:53;100463.41;;;9.71;100.00
64192;BME280;50497;50.720;-2.084;2023-04-01T02:42:25;100458.28;;;9.67;100.00
64192;BME280;50497;50.720;-2.084;2023-04-01T02:44:53;100466.22;;;9.68;100.00
64192;BME280;50497;50.720;-2.084;2023-04-01T02:47:23;100470.75;;;9.66;100.00
64192;BME280;50497;50.720;-2.084;2023-04-01T02:49:48;100429.72;;;9.50;100.00
64192;BME280;50497;50.720;-2.084;2023-04-01T02:52:17;100464.34;;;9.70;100.00
64192;BME280;50497;50.720;-2.084;2023-04-01T02:54:46;100472.13;;;9.75;100.00
64192;BME280;50497;50.720;-2.084;2023-04-01T02:57:11;100472.22;;;9.73;100.00
64192;BME280;50497;50.720;-2.084;2023-04-01T02:59:40;100473.63;;;9.80;100.00
64192;BME280;50497;50.720;-2.084;2023-04-01T03:02:06;100469.31;;;9.78;100.00
64192;BME280;50497;50.720;-2.084;2023-04-01T03:04:34;100481.88;;;9.76;100.00
64192;BME280;50497;50.720;-2.084;2023-04-01T03:06:59;100478.97;;;9.80;100.00
64192;BME280;50497;50.720;-2.084;2023-04-01T03:09:32;100478.13;;;9.80;100.00
64192;BME280;50497;50.720;-2.084;2023-04-01T03:12:01;100485.28;;;9.79;100.00
64192;BME280;50497;50.720;-2.084;2023-04-01T03:14:29;100480.72;;;9.82;100.00
64192;BME280;50497;50.720;-2.084;2023-04-01T03:17:01;100488.66;;;9.83;100.00
64192;BME280;50497;50.720;-2.084;2023-04-01T03:19:27;100495.00;;;9.80;100.00
64192;BME280;50497;50.720;-2.084;2023-04-01T03:21:59;100472.56;;;9.66;100.00
64192;BME280;50497;50.720;-2.084;2023-04-01T03:24:32;100496.59;;;9.85;100.00
64192;BME280;50497;50.720;-2.084;2023-04-01T03:27:00;100485.56;;;9.73;100.00
64192;BME280;50497;50.720;-2.084;2023-04-01T03:29:29;100495.97;;;9.79;100.00
64192;BME280;50497;50.720;-2.084;2023-04-01T03:32:01;100498.53;;;9.81;100.00
64192;BME280;50497;50.720;-2.084;2023-04-01T03:34:29;100488.81;;;9.80;100.00
64192;BME280;50497;50.720;-2.084;2023-04-01T03:36:55;100461.81;;;9.67;100.00
64192;BME280;50497;50.720;-2.084;2023-04-01T03:39:20;100500.06;;;9.87;100.00
64192;BME280;50497;50.720;-2.084;2023-04-01T03:41:50;100507.94;;;9.90;100.00
64192;BME280;50497;50.720;-2.084;2023-04-01T03:44:19;100514.34;;;9.86;100.00
64192;BME280;50497;50.720;-2.084;2023-04-01T03:46:47;100509.97;;;9.85;100.00
64192;BME280;50497;50.720;-2.084;2023-04-01T03:49:15;100504.44;;;9.88;100.00
64192;BME280;50497;50.720;-2.084;2023-04-01T03:51:51;100500.41;;;9.79;100.00
64192;BME280;50497;50.720;-2.084;2023-04-01T03:54:17;100507.59;;;9.78;100.00
64192;BME280;50497;50.720;-2.084;2023-04-01T03:56:45;100505.47;;;9.85;100.00
64192;BME280;50497;50.720;-2.084;2023-04-01T03:59:17;100474.25;;;9.68;100.00
64192;BME280;50497;50.720;-2.084;2023-04-01T04:01:42;100505.41;;;9.87;100.00
64192;BME280;50497;50.720;-2.084;2023-04-01T04:04:12;100481.16;;;9.72;100.00
64192;BME280;50497;50.720;-2.084;2023-04-01T04:06:43;100511.75;;;9.84;100.00
64192;BME280;50497;50.720;-2.084;2023-04-01T04:09:09;100502.03;;;9.83;100.00
64192;BME280;50497;50.720;-2.084;2023-04-01T04:11:34;100492.28;;;9.63;100.00
64192;BME280;50497;50.720;-2.084;2023-04-01T04:14:06;100491.06;;;9.70;100.00
64192;BME280;50497;50.720;-2.084;2023-04-01T04:16:35;100524.97;;;9.87;100.00
64192;BME280;50497;50.720;-2.084;2023-04-01T04:19:04;100507.22;;;9.67;100.00
64192;BME280;50497;50.720;-2.084;2023-04-01T04:21:29;100529.66;;;9.82;100.00
64192;BME280;50497;50.720;-2.084;2023-04-01T04:23:55;100519.44;;;9.73;100.00
64192;BME280;50497;50.720;-2.084;2023-04-01T04:26:24;100509.09;;;9.65;100.00
64192;BME280;50497;50.720;-2.084;2023-04-01T04:28:51;100513.81;;;9.60;100.00
64192;BME280;50497;50.720;-2.084;2023-04-01T04:31:24;100530.84;;;9.76;100.00
64192;BME280;50497;50.720;-2.084;2023-04-01T04:33:50;100544.84;;;9.82;100.00
64192;BME280;50497;50.720;-2.084;2023-04-01T04:36:17;100545.00;;;9.78;100.00
64192;BME280;50497;50.720;-2.084;2023-04-01T04:38:42;100541.22;;;9.83;100.00
64192;BME280;50497;50.720;-2.084;2023-04-01T04:41:10;100544.06;;;9.79;100.00
64192;BME280;50497;50.720;-2.084;2023-04-01T04:43:35;100546.88;;;9.76;100.00
64192;BME280;50497;50.720;-2.084;2023-04-01T04:46:05;100507.00;;;9.53;100.00
64192;BME280;50497;50.720;-2.084;2023-04-01T04:48:35;100522.88;;;9.56;100.00
64192;BME280;50497;50.720;-2.084;2023-04-01T04:51:01;100512.06;;;9.59;100.00
64192;BME280;50497;50.720;-2.084;2023-04-01T04:53:26;100496.16;;;9.56;100.00
64192;BME280;50497;50.720;-2.084;2023-04-01T04:55:57;100478.72;;;9.49;100.00
64192;BME280;50497;50.720;-2.084;2023-04-01T04:58:22;100454.84;;;9.27;100.00
64192;BME280;50497;50.720;-2.084;2023-04-01T05:00:51;100455.69;;;9.27;100.00
64192;BME280;50497;50.720;-2.084;2023-04-01T05:03:17;100481.38;;;9.49;100.00
64192;BME280;50497;50.720;-2.084;2023-04-01T05:05:53;100475.19;;;9.48;100.00
64192;BME280;50497;50.720;-2.084;2023-04-01T05:08:18;100477.28;;;9.41;100.00
64192;BME280;50497;50.720;-2.084;2023-04-01T05:10:45;100446.06;;;9.23;100.00
64192;BME280;50497;50.720;-2.084;2023-04-01T05:13:11;100486.00;;;9.45;100.00
64192;BME280;50497;50.720;-2.084;2023-04-01T05:15:44;100503.81;;;9.44;100.00
64192;BME280;50497;50.720;-2.084;2023-04-01T05:18:14;100498.19;;;9.51;100.00
64192;BME280;50497;50.720;-2.084;2023-04-01T05:20:49;100501.16;;;9.44;100.00
64192;BME280;50497;50.720;-2.084;2023-04-01T05:23:16;100509.59;;;9.54;100.00
64192;BME280;50497;50.720;-2.084;2023-04-01T05:25:42;100525.47;;;9.57;100.00
64192;BME280;50497;50.720;-2.084;2023-04-01T05:28:08;100529.03;;;9.58;100.00
64192;BME280;50497;50.720;-2.084;2023-04-01T05:30:33;100546.63;;;9.62;100.00
64192;BME280;50497;50.720;-2.084;2023-04-01T05:33:02;100547.56;;;9.61;100.00
64192;BME280;50497;50.720;-2.084;2023-04-01T05:35:28;100533.94;;;9.48;100.00
64192;BME280;50497;50.720;-2.084;2023-04-01T05:37:53;100563.91;;;9.55;100.00
64192;BME280;50497;50.720;-2.084;2023-04-01T05:40:28;100565.63;;;9.56;100.00
64192;BME280;50497;50.720;-2.084;2023-04-01T05:42:57;100538.69;;;9.41;100.00
64192;BME280;50497;50.720;-2.084;2023-04-01T05:45:23;100575.31;;;9.58;100.00
64192;BME280;50497;50.720;-2.084;2023-04-01T05:47:49;100551.16;;;9.41;100.00
64192;BME280;50497;50.720;-2.084;2023-04-01T05:50:14;100590.38;;;9.59;100.00
64192;BME280;50497;50.720;-2.084;2023-04-01T05:52:40;100581.94;;;9.50;100.00
64192;BME280;50497;50.720;-2.084;2023-04-01T05:55:06;100600.19;;;9.59;100.00
64192;BME280;50497;50.720;-2.084;2023-04-01T05:57:35;100594.06;;;9.57;100.00
64192;BME280;50497;50.720;-2.084;2023-04-01T06:00:04;100566.25;;;9.42;100.00
64192;BME280;50497;50.720;-2.084;2023-04-01T06:02:34;100605.47;;;9.60;100.00
64192;BME280;50497;50.720;-2.084;2023-04-01T06:05:10;100607.50;;;9.55;100.00
64192;BME280;50497;50.720;-2.084;2023-04-01T06:07:37;100614.34;;;9.61;100.00
64192;BME280;50497;50.720;-2.084;2023-04-01T06:10:10;100619.75;;;9.59;100.00
64192;BME280;50497;50.720;-2.084;2023-04-01T06:16:07;100622.34;;;9.61;100.00
64192;BME280;50497;50.720;-2.084;2023-04-01T06:24:23;100631.41;;;9.58;100.00
64192;BME280;50497;50.720;-2.084;2023-04-01T06:54:31;100621.38;;;9.64;100.00
64192;BME280;50497;50.720;-2.084;2023-04-01T06:57:03;100617.97;;;9.60;100.00
64192;BME280;50497;50.720;-2.084;2023-04-01T06:59:33;100611.53;;;9.64;100.00
64192;BME280;50497;50.720;-2.084;2023-04-01T07:04:46;100613.16;;;9.68;100.00
64192;BME280;50497;50.720;-2.084;2023-04-01T07:07:38;100616.63;;;9.70;100.00
64192;BME280;50497;50.720;-2.084;2023-04-01T07:13:05;100613.56;;;9.59;100.00
64192;BME280;50497;50.720;-2.084;2023-04-01T07:15:38;100620.34;;;9.66;100.00
64192;BME280;50497;50.720;-2.084;2023-04-01T07:18:15;100601.28;;;9.55;100.00
64192;BME280;50497;50.720;-2.084;2023-04-01T07:20:42;100605.09;;;9.49;100.00
64192;BME280;50497;50.720;-2.084;2023-04-01T07:23:28;100607.75;;;9.49;100.00
64192;BME280;50497;50.720;-2.084;2023-04-01T07:26:06;100629.03;;;9.71;100.00
64192;BME280;50497;50.720;-2.084;2023-04-01T07:28:36;100636.25;;;9.69;100.00
64192;BME280;50497;50.720;-2.084;2023-04-01T07:36:42;100639.28;;;9.80;100.00
64192;BME280;50497;50.720;-2.084;2023-04-01T07:39:36;100646.44;;;9.80;100.00
64192;BME280;50497;50.720;-2.084;2023-04-01T07:42:38;100651.00;;;9.78;100.00
64192;BME280;50497;50.720;-2.084;2023-04-01T07:56:28;100655.47;;;9.77;100.00
64192;BME280;50497;50.720;-2.084;2023-04-01T07:59:25;100659.22;;;9.73;100.00
64192;BME280;50497;50.720;-2.084;2023-04-01T08:02:15;100647.69;;;9.73;100.00
64192;BME280;50497;50.720;-2.084;2023-04-01T08:04:55;100652.41;;;9.66;100.00
64192;BME280;50497;50.720;-2.084;2023-04-01T08:10:26;100638.13;;;9.67;100.00
64192;BME280;50497;50.720;-2.084;2023-04-01T08:16:10;100657.59;;;9.69;100.00
64192;BME280;50497;50.720;-2.084;2023-04-01T08:21:48;100659.41;;;9.69;100.00
64192;BME280;50497;50.720;-2.084;2023-04-01T08:24:41;100665.50;;;9.72;100.00
64192;BME280;50497;50.720;-2.084;2023-04-01T08:27:21;100667.16;;;9.75;100.00
64192;BME280;50497;50.720;-2.084;2023-04-01T08:29:59;100676.84;;;9.77;100.00
64192;BME280;50497;50.720;-2.084;2023-04-01T08:32:39;100673.25;;;9.78;100.00
64192;BME280;50497;50.720;-2.084;2023-04-01T08:35:29;100657.34;;;9.75;100.00
64192;BME280;50497;50.720;-2.084;2023-04-01T08:38:04;100673.25;;;9.97;100.00
64192;BME280;50497;50.720;-2.084;2023-04-01T08:41:12;100681.91;;;10.03;100.00
64192;BME280;50497;50.720;-2.084;2023-04-01T08:46:32;100700.56;;;10.04;100.00
64192;BME280;50497;50.720;-2.084;2023-04-01T08:52:13;100721.28;;;10.20;100.00
64192;BME280;50497;50.720;-2.084;2023-04-01T09:00:44;100755.38;;;10.14;100.00
64192;BME280;50497;50.720;-2.084;2023-04-01T09:18:15;100778.97;;;10.05;100.00
64192;BME280;50497;50.720;-2.084;2023-04-01T09:38:36;100842.78;;;10.53;100.00
64192;BME280;50497;50.720;-2.084;2023-04-01T09:41:26;100858.09;;;10.50;100.00
64192;BME280;50497;50.720;-2.084;2023-04-01T09:44:12;100864.03;;;10.57;100.00
64192;BME280;50497;50.720;-2.084;2023-04-01T09:56:19;100858.28;;;10.66;100.00
64192;BME280;50497;50.720;-2.084;2023-04-01T10:25:37;100846.66;;;10.86;100.00
64192;BME280;50497;50.720;-2.084;2023-04-01T10:36:47;100868.53;;;11.32;100.00
64192;BME280;50497;50.720;-2.084;2023-04-01T10:39:33;100876.66;;;11.12;100.00
64192;BME280;50497;50.720;-2.084;2023-04-01T10:50:49;100878.75;;;11.05;100.00
64192;BME280;50497;50.720;-2.084;2023-04-01T10:53:33;100898.59;;;11.01;100.00
64192;BME280;50497;50.720;-2.084;2023-04-01T11:21:50;100934.63;;;11.51;100.00
64192;BME280;50497;50.720;-2.084;2023-04-01T11:27:30;100937.66;;;11.43;100.00
64192;BME280;50497;50.720;-2.084;2023-04-01T11:35:35;100941.56;;;11.74;100.00
64192;BME280;50497;50.720;-2.084;2023-04-01T11:38:52;100954.22;;;11.70;100.00
64192;BME280;50497;50.720;-2.084;2023-04-01T11:44:48;100956.22;;;12.03;100.00
64192;BME280;50497;50.720;-2.084;2023-04-01T11:53:05;100995.00;;;11.96;100.00
64192;BME280;50497;50.720;-2.084;2023-04-01T12:05:54;100978.84;;;11.97;100.00
64192;BME280;50497;50.720;-2.084;2023-04-01T12:31:25;100954.09;;;11.54;100.00
64192;BME280;50497;50.720;-2.084;2023-04-01T12:37:12;100927.25;;;11.37;100.00
64192;BME280;50497;50.720;-2.084;2023-04-01T12:43:28;100940.94;;;11.12;100.00
64192;BME280;50497;50.720;-2.084;2023-04-01T12:52:15;100952.66;;;11.47;100.00
64192;BME280;50497;50.720;-2.084;2023-04-01T12:55:03;100957.94;;;11.68;100.00
64192;BME280;50497;50.720;-2.084;2023-04-01T13:28:21;101098.66;;;12.70;100.00
64192;BME280;50497;50.720;-2.084;2023-04-01T13:34:05;101147.53;;;13.81;100.00
64192;BME280;50497;50.720;-2.084;2023-04-01T13:36:54;101193.59;;;14.56;100.00
64192;BME280;50497;50.720;-2.084;2023-04-01T13:39:57;101247.13;;;14.13;100.00
64192;BME280;50497;50.720;-2.084;2023-04-01T13:42:25;101277.41;;;13.29;100.00
64192;BME280;50497;50.720;-2.084;2023-04-01T13:44:56;101244.13;;;14.02;100.00
64192;BME280;50497;50.720;-2.084;2023-04-01T13:50:46;101232.19;;;14.23;100.00
64192;BME280;50497;50.720;-2.084;2023-04-01T13:58:57;101319.78;;;13.43;100.00
64192;BME280;50497;50.720;-2.084;2023-04-01T14:09:48;101367.47;;;15.58;100.00
64192;BME280;50497;50.720;-2.084;2023-04-01T14:12:30;101417.81;;;14.93;100.00
64192;BME280;50497;50.720;-2.084;2023-04-01T14:29:53;101390.03;;;14.59;100.00
64192;BME280;50497;50.720;-2.084;2023-04-01T14:34:44;101404.69;;;14.36;100.00
64192;BME280;50497;50.720;-2.084;2023-04-01T14:43:10;101411.06;;;14.69;100.00
64192;BME280;50497;50.720;-2.084;2023-04-01T14:51:15;101445.44;;;14.97;100.00
64192;BME280;50497;50.720;-2.084;2023-04-01T14:59:09;101421.09;;;13.60;100.00
64192;BME280;50497;50.720;-2.084;2023-04-01T15:01:46;101403.75;;;13.48;100.00
64192;BME280;50497;50.720;-2.084;2023-04-01T15:04:29;101381.56;;;13.24;100.00
64192;BME280;50497;50.720;-2.084;2023-04-01T15:07:17;101371.94;;;13.39;100.00
64192;BME280;50497;50.720;-2.084;2023-04-01T15:16:02;101386.19;;;15.61;100.00
64192;BME280;50497;50.720;-2.084;2023-04-01T15:18:53;101467.94;;;14.10;100.00
64192;BME280;50497;50.720;-2.084;2023-04-01T15:24:56;101480.09;;;13.05;100.00
64192;BME280;50497;50.720;-2.084;2023-04-01T15:33:37;101476.22;;;13.69;100.00
64192;BME280;50497;50.720;-2.084;2023-04-01T15:36:15;101486.75;;;14.28;100.00
64192;BME280;50497;50.720;-2.084;2023-04-01T15:39:14;101478.34;;;13.81;100.00
64192;BME280;50497;50.720;-2.084;2023-04-01T15:59:04;101544.88;;;12.57;100.00
64192;BME280;50497;50.720;-2.084;2023-04-01T16:01:50;101535.13;;;12.55;100.00
64192;BME280;50497;50.720;-2.084;2023-04-01T16:10:41;101562.19;;;12.50;100.00
64192;BME280;50497;50.720;-2.084;2023-04-01T16:13:38;101585.03;;;12.16;100.00
64192;BME280;50497;50.720;-2.084;2023-04-01T16:21:54;101575.00;;;11.99;100.00
64192;BME280;50497;50.720;-2.084;2023-04-01T16:27:54;101581.84;;;12.07;100.00
64192;BME280;50497;50.720;-2.084;2023-04-01T16:33:22;101621.16;;;11.84;100.00
64192;BME280;50497;50.720;-2.084;2023-04-01T16:36:06;101665.16;;;11.78;100.00
64192;BME280;50497;50.720;-2.084;2023-04-01T16:41:31;101682.66;;;11.63;100.00
64192;BME280;50497;50.720;-2.084;2023-04-01T16:44:17;101666.22;;;11.74;100.00
64192;BME280;50497;50.720;-2.084;2023-04-01T16:46:46;101657.53;;;11.68;100.00
64192;BME280;50497;50.720;-2.084;2023-04-01T16:49:30;101659.56;;;11.61;100.00
64192;BME280;50497;50.720;-2.084;2023-04-01T16:57:31;101678.69;;;11.50;100.00
64192;BME280;50497;50.720;-2.084;2023-04-01T17:00:26;101687.56;;;11.52;100.00
64192;BME280;50497;50.720;-2.084;2023-04-01T17:03:08;101688.75;;;11.43;100.00
64192;BME280;50497;50.720;-2.084;2023-04-01T17:05:52;101693.84;;;11.51;100.00
64192;BME280;50497;50.720;-2.084;2023-04-01T17:13:46;101693.09;;;11.48;100.00
64192;BME280;50497;50.720;-2.084;2023-04-01T17:19:23;101680.66;;;11.20;100.00
64192;BME280;50497;50.720;-2.084;2023-04-01T17:25:10;101673.41;;;11.23;100.00
64192;BME280;50497;50.720;-2.084;2023-04-01T17:28:08;101680.00;;;11.13;100.00
64192;BME280;50497;50.720;-2.084;2023-04-01T17:30:39;101667.47;;;11.14;100.00
64192;BME280;50497;50.720;-2.084;2023-04-01T17:41:44;101638.88;;;10.89;100.00
64192;BME280;50497;50.720;-2.084;2023-04-01T17:57:41;101667.44;;;10.62;100.00
64192;BME280;50497;50.720;-2.084;2023-04-01T18:03:16;101665.00;;;10.54;100.00
64192;BME280;50497;50.720;-2.084;2023-04-01T18:14:25;101632.03;;;10.25;100.00
64192;BME280;50497;50.720;-2.084;2023-04-01T18:22:45;101657.75;;;10.01;100.00
64192;BME280;50497;50.720;-2.084;2023-04-01T18:25:22;101657.06;;;9.94;100.00
64192;BME280;50497;50.720;-2.084;2023-04-01T18:33:48;101629.38;;;9.66;100.00
64192;BME280;50497;50.720;-2.084;2023-04-01T18:36:38;101620.66;;;9.59;100.00
64192;BME280;50497;50.720;-2.084;2023-04-01T18:44:26;101598.13;;;9.38;100.00
64192;BME280;50497;50.720;-2.084;2023-04-01T18:47:05;101598.81;;;9.44;100.00
64192;BME280;50497;50.720;-2.084;2023-04-01T18:49:46;101590.97;;;9.40;100.00
64192;BME280;50497;50.720;-2.084;2023-04-01T18:52:31;101596.50;;;9.32;100.00
64192;BME280;50497;50.720;-2.084;2023-04-01T18:57:50;101594.16;;;9.21;100.00
64192;BME280;50497;50.720;-2.084;2023-04-01T19:00:21;101601.19;;;9.24;100.00
64192;BME280;50497;50.720;-2.084;2023-04-01T19:02:55;101597.69;;;9.22;100.00
64192;BME280;50497;50.720;-2.084;2023-04-01T19:05:34;101595.13;;;9.17;100.00
64192;BME280;50497;50.720;-2.084;2023-04-01T19:08:26;101603.16;;;9.17;100.00
64192;BME280;50497;50.720;-2.084;2023-04-01T19:17:22;101625.72;;;9.38;100.00
64192;BME280;50497;50.720;-2.084;2023-04-01T19:25:37;101676.19;;;9.48;100.00
64192;BME280;50497;50.720;-2.084;2023-04-01T19:31:24;101710.81;;;9.52;100.00
64192;BME280;50497;50.720;-2.084;2023-04-01T19:47:50;101762.44;;;9.53;100.00
64192;BME280;50497;50.720;-2.084;2023-04-01T19:53:13;101780.59;;;9.40;100.00
64192;BME280;50497;50.720;-2.084;2023-04-01T19:55:52;101800.22;;;9.37;100.00
64192;BME280;50497;50.720;-2.084;2023-04-01T19:58:33;101804.72;;;9.37;100.00
64192;BME280;50497;50.720;-2.084;2023-04-01T20:01:08;101820.84;;;9.32;100.00
64192;BME280;50497;50.720;-2.084;2023-04-01T20:03:48;101835.09;;;9.31;100.00
64192;BME280;50497;50.720;-2.084;2023-04-01T20:14:47;101861.09;;;9.23;100.00
64192;BME280;50497;50.720;-2.084;2023-04-01T20:17:25;101876.13;;;9.29;100.00
64192;BME280;50497;50.720;-2.084;2023-04-01T20:22:38;;;;9.19;
64192;BME280;50497;50.720;-2.084;2023-04-01T20:27:55;101877.53;;;9.06;100.00
64192;BME280;50497;50.720;-2.084;2023-04-01T20:30:42;101872.38;;;8.98;100.00
64192;BME280;50497;50.720;-2.084;2023-04-01T20:36:38;101906.78;;;9.11;100.00
64192;BME280;50497;50.720;-2.084;2023-04-01T20:48:04;101931.22;;;8.92;100.00
64192;BME280;50497;50.720;-2.084;2023-04-01T20:50:50;101930.41;;;8.90;100.00
64192;BME280;50497;50.720;-2.084;2023-04-01T20:56:23;101962.53;;;8.84;100.00
64192;BME280;50497;50.720;-2.084;2023-04-01T21:09:41;101961.53;;;8.44;100.00
64192;BME280;50497;50.720;-2.084;2023-04-01T21:12:29;101980.88;;;8.56;100.00
64192;BME280;50497;50.720;-2.084;2023-04-01T21:15:15;101978.31;;;8.51;100.00
64192;BME280;50497;50.720;-2.084;2023-04-01T21:23:15;101963.06;;;8.58;100.00
64192;BME280;50497;50.720;-2.084;2023-04-01T21:29:15;101975.44;;;8.62;100.00
64192;BME280;50497;50.720;-2.084;2023-04-01T21:37:26;101983.31;;;8.66;100.00
64192;BME280;50497;50.720;-2.084;2023-04-01T22:07:28;102069.31;;;8.29;100.00
64192;BME280;50497;50.720;-2.084;2023-04-01T22:10:09;102083.59;;;8.27;100.00
64192;BME280;50497;50.720;-2.084;2023-04-01T22:13:00;102099.72;;;8.18;100.00
64192;BME280;50497;50.720;-2.084;2023-04-01T22:18:44;102094.47;;;8.13;100.00
64192;BME280;50497;50.720;-2.084;2023-04-01T22:23:58;102144.97;;;8.24;100.00
64192;BME280;50497;50.720;-2.084;2023-04-01T22:26:48;102157.22;;;8.36;100.00
64192;BME280;50497;50.720;-2.084;2023-04-01T22:43:08;102157.22;;;7.72;100.00
64192;BME280;50497;50.720;-2.084;2023-04-01T22:46:02;102186.41;;;7.81;100.00
64192;BME280;50497;50.720;-2.084;2023-04-01T22:51:24;102176.03;;;7.59;100.00
64192;BME280;50497;50.720;-2.084;2023-04-01T22:54:04;102177.03;;;7.51;100.00
64192;BME280;50497;50.720;-2.084;2023-04-01T22:56:46;102161.06;;;7.48;100.00
64192;BME280;50497;50.720;-2.084;2023-04-01T23:02:00;102110.50;;;7.45;100.00
64192;BME280;50497;50.720;-2.084;2023-04-01T23:04:37;102141.22;;;7.73;100.00
64192;BME280;50497;50.720;-2.084;2023-04-01T23:07:19;102152.66;;;7.82;100.00
64192;BME280;50497;50.720;-2.084;2023-04-01T23:09:51;102150.75;;;7.91;100.00
64192;BME280;50497;50.720;-2.084;2023-04-01T23:12:25;102156.00;;;7.99;100.00
64192;BME280;50497;50.720;-2.084;2023-04-01T23:14:58;102160.34;;;8.03;100.00
64192;BME280;50497;50.720;-2.084;2023-04-01T23:17:39;102166.50;;;8.08;100.00
64192;BME280;50497;50.720;-2.084;2023-04-01T23:20:32;102179.75;;;8.14;100.00
64192;BME280;50497;50.720;-2.084;2023-04-01T23:23:15;102177.91;;;8.18;100.00
64192;BME280;50497;50.720;-2.084;2023-04-01T23:28:42;102187.63;;;8.25;100.00
64192;BME280;50497;50.720;-2.084;2023-04-01T23:31:43;102211.56;;;8.28;100.00
64192;BME280;50497;50.720;-2.084;2023-04-01T23:34:22;102224.78;;;8.35;100.00
64192;BME280;50497;50.720;-2.084;2023-04-01T23:37:09;102206.28;;;8.24;100.00
64192;BME280;50497;50.720;-2.084;2023-04-01T23:39:44;102238.13;;;8.35;100.00
64192;BME280;50497;50.720;-2.084;2023-04-01T23:44:51;102262.03;;;8.42;100.00